sensor_id;sensor_type;location;lat;lon;timestamp;P1;durP1;ratioP1;P2;durP2;ratioP2
11807;SDS011;5961;42.640;23.380;2023-03-19T00:01:35;14.10;;;8.90;;
11807;SDS011;5961;42.640;23.380;2023-03-19T00:04:02;14.50;;;9.10;;
11807;SDS011;5961;42.640;23.380;2023-03-19T00:06:29;15.77;;;8.40;;
11807;SDS011;5961;42.640;23.380;2023-03-19T00:08:56;14.17;;;8.97;;
11807;SDS011;5961;42.640;23.380;2023-03-19T00:11:22;14.73;;;8.77;;
11807;SDS011;5961;42.640;23.380;2023-03-19T00:13:49;15.30;;;8.50;;
11807;SDS011;5961;42.640;23.380;2023-03-19T00:16:17;13.50;;;8.23;;
11807;SDS011;5961;42.640;23.380;2023-03-19T00:18:44;14.43;;;7.97;;
11807;SDS011;5961;42.640;23.380;2023-03-19T00:21:11;11.90;;;7.67;;
11807;SDS011;5961;42.640;23.380;2023-03-19T00:23:38;12.10;;;7.50;;
11807;SDS011;5961;42.640;23.380;2023-03-19T00:26:05;13.37;;;8.10;;
11807;SDS011;5961;42.640;23.380;2023-03-19T00:28:32;15.07;;;8.30;;
11807;SDS011;5961;42.640;23.380;2023-03-19T00:31:05;14.63;;;9.00;;
11807;SDS011;5961;42.640;23.380;2023-03-19T00:33:34;14.70;;;9.57;;
11807;SDS011;5961;42.640;23.380;2023-03-19T00:36:02;14.67;;;8.43;;
11807;SDS011;5961;42.640;23.380;2023-03-19T00:38:30;15.27;;;8.40;;
11807;SDS011;5961;42.640;23.380;2023-03-19T00:40:58;14.77;;;8.83;;
11807;SDS011;5961;42.640;23.380;2023-03-19T00:43:25;16.17;;;9.37;;
11807;SDS011;5961;42.640;23.380;2023-03-19T00:45:52;14.20;;;8.70;;
11807;SDS011;5961;42.640;23.380;2023-03-19T00:48:19;13.60;;;8.70;;
11807;SDS011;5961;42.640;23.380;2023-03-19T00:50:47;13.77;;;9.27;;
11807;SDS011;5961;42.640;23.380;2023-03-19T00:53:14;15.33;;;9.17;;
11807;SDS011;5961;42.640;23.380;2023-03-19T00:55:41;15.90;;;8.87;;
11807;SDS011;5961;42.640;23.380;2023-03-19T00:58:08;11.80;;;8.77;;
11807;SDS011;5961;42.640;23.380;2023-03-19T01:00:35;14.87;;;8.60;;
11807;SDS011;5961;42.640;23.380;2023-03-19T01:03:03;15.73;;;8.50;;
11807;SDS011;5961;42.640;23.380;2023-03-19T01:05:31;15.03;;;8.47;;
11807;SDS011;5961;42.640;23.380;2023-03-19T01:08:01;13.47;;;9.40;;
11807;SDS011;5961;42.640;23.380;2023-03-19T01:10:28;14.73;;;8.67;;
11807;SDS011;5961;42.640;23.380;2023-03-19T01:12:55;14.40;;;9.40;;
11807;SDS011;5961;42.640;23.380;2023-03-19T01:15:22;19.60;;;12.77;;
11807;SDS011;5961;42.640;23.380;2023-03-19T01:17:49;21.53;;;12.97;;
11807;SDS011;5961;42.640;23.380;2023-03-19T01:20:15;15.20;;;10.00;;
11807;SDS011;5961;42.640;23.380;2023-03-19T01:22:43;14.07;;;9.57;;
11807;SDS011;5961;42.640;23.380;2023-03-19T01:25:12;13.90;;;9.00;;
11807;SDS011;5961;42.640;23.380;2023-03-19T01:27:39;15.80;;;8.40;;
11807;SDS011;5961;42.640;23.380;2023-03-19T01:30:07;14.10;;;8.37;;
11807;SDS011;5961;42.640;23.380;2023-03-19T01:32:34;15.00;;;7.40;;
11807;SDS011;5961;42.640;23.380;2023-03-19T01:35:01;13.23;;;7.30;;
11807;SDS011;5961;42.640;23.380;2023-03-19T01:37:28;10.90;;;6.53;;
11807;SDS011;5961;42.640;23.380;2023-03-19T01:39:55;10.97;;;6.17;;
11807;SDS011;5961;42.640;23.380;2023-03-19T01:42:23;9.33;;;6.30;;
11807;SDS011;5961;42.640;23.380;2023-03-19T01:44:50;12.07;;;6.20;;
11807;SDS011;5961;42.640;23.380;2023-03-19T01:47:18;10.20;;;6.00;;
11807;SDS011;5961;42.640;23.380;2023-03-19T01:49:51;8.67;;;5.17;;
11807;SDS011;5961;42.640;23.380;2023-03-19T01:52:20;10.93;;;5.03;;
11807;SDS011;5961;42.640;23.380;2023-03-19T01:54:49;9.80;;;5.60;;
11807;SDS011;5961;42.640;23.380;2023-03-19T01:57:16;7.77;;;5.03;;
11807;SDS011;5961;42.640;23.380;2023-03-19T01:59:45;7.47;;;4.97;;
11807;SDS011;5961;42.640;23.380;2023-03-19T02:02:15;5.80;;;4.50;;
11807;SDS011;5961;42.640;23.380;2023-03-19T02:04:46;8.10;;;4.70;;
11807;SDS011;5961;42.640;23.380;2023-03-19T02:07:18;7.23;;;4.83;;
11807;SDS011;5961;42.640;23.380;2023-03-19T02:09:46;7.97;;;4.80;;
11807;SDS011;5961;42.640;23.380;2023-03-19T02:12:13;7.33;;;4.87;;
11807;SDS011;5961;42.640;23.380;2023-03-19T02:14:40;8.57;;;5.40;;
11807;SDS011;5961;42.640;23.380;2023-03-19T02:17:08;9.47;;;5.60;;
11807;SDS011;5961;42.640;23.380;2023-03-19T02:19:39;7.90;;;4.90;;
11807;SDS011;5961;42.640;23.380;2023-03-19T02:22:14;10.47;;;5.20;;
11807;SDS011;5961;42.640;23.380;2023-03-19T02:24:47;7.13;;;4.83;;
11807;SDS011;5961;42.640;23.380;2023-03-19T02:27:20;7.57;;;4.47;;
11807;SDS011;5961;42.640;23.380;2023-03-19T02:29:47;7.13;;;4.70;;
11807;SDS011;5961;42.640;23.380;2023-03-19T02:32:14;7.03;;;4.60;;
11807;SDS011;5961;42.640;23.380;2023-03-19T02:34:41;7.97;;;4.73;;
11807;SDS011;5961;42.640;23.380;2023-03-19T02:37:10;6.57;;;4.50;;
11807;SDS011;5961;42.640;23.380;2023-03-19T02:39:44;6.27;;;4.90;;
11807;SDS011;5961;42.640;23.380;2023-03-19T02:42:15;6.37;;;4.50;;
11807;SDS011;5961;42.640;23.380;2023-03-19T02:44:45;6.47;;;4.70;;
11807;SDS011;5961;42.640;23.380;2023-03-19T02:47:12;6.70;;;4.93;;
11807;SDS011;5961;42.640;23.380;2023-03-19T02:49:39;7.07;;;5.00;;
11807;SDS011;5961;42.640;23.380;2023-03-19T02:52:06;8.23;;;5.17;;
11807;SDS011;5961;42.640;23.380;2023-03-19T02:54:33;7.73;;;4.90;;
11807;SDS011;5961;42.640;23.380;2023-03-19T02:57:00;6.27;;;4.33;;
11807;SDS011;5961;42.640;23.380;2023-03-19T02:59:28;5.03;;;4.13;;
11807;SDS011;5961;42.640;23.380;2023-03-19T03:01:56;8.10;;;4.30;;
11807;SDS011;5961;42.640;23.380;2023-03-19T03:04:23;8.97;;;4.47;;
11807;SDS011;5961;42.640;23.380;2023-03-19T03:06:50;5.93;;;3.87;;
11807;SDS011;5961;42.640;23.380;2023-03-19T03:09:17;9.33;;;5.03;;
11807;SDS011;5961;42.640;23.380;2023-03-19T03:11:44;7.80;;;5.10;;
11807;SDS011;5961;42.640;23.380;2023-03-19T03:14:11;5.73;;;4.30;;
11807;SDS011;5961;42.640;23.380;2023-03-19T03:16:37;6.50;;;4.30;;
11807;SDS011;5961;42.640;23.380;2023-03-19T03:19:05;5.83;;;4.37;;
11807;SDS011;5961;42.640;23.380;2023-03-19T03:21:32;7.40;;;4.67;;
11807;SDS011;5961;42.640;23.380;2023-03-19T03:23:59;5.23;;;4.10;;
11807;SDS011;5961;42.640;23.380;2023-03-19T03:26:26;8.23;;;4.87;;
11807;SDS011;5961;42.640;23.380;2023-03-19T03:28:53;8.17;;;4.60;;
11807;SDS011;5961;42.640;23.380;2023-03-19T03:31:19;7.00;;;4.83;;
11807;SDS011;5961;42.640;23.380;2023-03-19T03:33:48;10.30;;;5.00;;
11807;SDS011;5961;42.640;23.380;2023-03-19T03:36:17;10.50;;;5.90;;
11807;SDS011;5961;42.640;23.380;2023-03-19T03:38:44;12.73;;;7.53;;
11807;SDS011;5961;42.640;23.380;2023-03-19T03:41:10;10.20;;;7.30;;
11807;SDS011;5961;42.640;23.380;2023-03-19T03:43:37;13.67;;;8.70;;
11807;SDS011;5961;42.640;23.380;2023-03-19T03:46:05;13.43;;;8.13;;
11807;SDS011;5961;42.640;23.380;2023-03-19T03:48:32;10.53;;;7.00;;
11807;SDS011;5961;42.640;23.380;2023-03-19T03:50:59;11.83;;;6.63;;
11807;SDS011;5961;42.640;23.380;2023-03-19T03:53:28;9.00;;;6.27;;
11807;SDS011;5961;42.640;23.380;2023-03-19T03:55:55;9.17;;;5.30;;
11807;SDS011;5961;42.640;23.380;2023-03-19T03:58:22;6.43;;;4.77;;
11807;SDS011;5961;42.640;23.380;2023-03-19T04:00:49;6.20;;;4.60;;
11807;SDS011;5961;42.640;23.380;2023-03-19T04:03:16;4.70;;;4.10;;
11807;SDS011;5961;42.640;23.380;2023-03-19T04:05:43;5.50;;;4.33;;
11807;SDS011;5961;42.640;23.380;2023-03-19T04:08:10;6.50;;;4.63;;
11807;SDS011;5961;42.640;23.380;2023-03-19T04:10:39;7.53;;;4.67;;
11807;SDS011;5961;42.640;23.380;2023-03-19T04:13:07;6.77;;;4.90;;
11807;SDS011;5961;42.640;23.380;2023-03-19T04:15:34;9.87;;;6.10;;
11807;SDS011;5961;42.640;23.380;2023-03-19T04:18:01;15.30;;;6.97;;
11807;SDS011;5961;42.640;23.380;2023-03-19T04:20:28;10.83;;;7.40;;
11807;SDS011;5961;42.640;23.380;2023-03-19T04:22:56;12.13;;;7.23;;
11807;SDS011;5961;42.640;23.380;2023-03-19T04:25:22;11.13;;;6.93;;
11807;SDS011;5961;42.640;23.380;2023-03-19T04:27:51;13.20;;;6.63;;
11807;SDS011;5961;42.640;23.380;2023-03-19T04:30:18;8.07;;;5.20;;
11807;SDS011;5961;42.640;23.380;2023-03-19T04:32:44;8.23;;;4.80;;
11807;SDS011;5961;42.640;23.380;2023-03-19T04:35:11;8.20;;;4.83;;
11807;SDS011;5961;42.640;23.380;2023-03-19T04:37:38;8.73;;;5.23;;
11807;SDS011;5961;42.640;23.380;2023-03-19T04:40:05;6.57;;;5.27;;
11807;SDS011;5961;42.640;23.380;2023-03-19T04:42:33;7.07;;;4.83;;
11807;SDS011;5961;42.640;23.380;2023-03-19T04:45:01;7.10;;;4.50;;
11807;SDS011;5961;42.640;23.380;2023-03-19T04:47:27;7.33;;;4.50;;
11807;SDS011;5961;42.640;23.380;2023-03-19T04:49:54;10.40;;;4.83;;
11807;SDS011;5961;42.640;23.380;2023-03-19T04:52:22;6.57;;;4.10;;
11807;SDS011;5961;42.640;23.380;2023-03-19T04:54:48;9.63;;;5.50;;
11807;SDS011;5961;42.640;23.380;2023-03-19T04:57:15;8.47;;;4.70;;
11807;SDS011;5961;42.640;23.380;2023-03-19T04:59:42;6.43;;;4.80;;
11807;SDS011;5961;42.640;23.380;2023-03-19T05:02:10;9.03;;;4.80;;
11807;SDS011;5961;42.640;23.380;2023-03-19T05:04:37;5.73;;;4.53;;
11807;SDS011;5961;42.640;23.380;2023-03-19T05:07:04;9.37;;;5.20;;
11807;SDS011;5961;42.640;23.380;2023-03-19T05:09:31;8.20;;;5.70;;
11807;SDS011;5961;42.640;23.380;2023-03-19T05:11:58;10.23;;;6.67;;
11807;SDS011;5961;42.640;23.380;2023-03-19T05:14:25;9.73;;;6.57;;
11807;SDS011;5961;42.640;23.380;2023-03-19T05:16:52;8.47;;;4.93;;
11807;SDS011;5961;42.640;23.380;2023-03-19T05:19:20;9.43;;;6.37;;
11807;SDS011;5961;42.640;23.380;2023-03-19T05:21:47;10.93;;;6.67;;
11807;SDS011;5961;42.640;23.380;2023-03-19T05:24:14;11.17;;;7.77;;
11807;SDS011;5961;42.640;23.380;2023-03-19T05:26:40;15.13;;;8.27;;
11807;SDS011;5961;42.640;23.380;2023-03-19T05:29:07;17.77;;;10.73;;
11807;SDS011;5961;42.640;23.380;2023-03-19T05:31:35;15.83;;;10.60;;
11807;SDS011;5961;42.640;23.380;2023-03-19T05:34:02;17.70;;;9.50;;
11807;SDS011;5961;42.640;23.380;2023-03-19T05:36:31;16.00;;;8.87;;
11807;SDS011;5961;42.640;23.380;2023-03-19T05:38:57;15.47;;;9.90;;
11807;SDS011;5961;42.640;23.380;2023-03-19T05:41:24;13.70;;;8.30;;
11807;SDS011;5961;42.640;23.380;2023-03-19T05:43:51;14.50;;;9.07;;
11807;SDS011;5961;42.640;23.380;2023-03-19T05:46:18;14.73;;;8.70;;
11807;SDS011;5961;42.640;23.380;2023-03-19T05:48:45;14.63;;;9.53;;
11807;SDS011;5961;42.640;23.380;2023-03-19T05:51:11;14.77;;;8.80;;
11807;SDS011;5961;42.640;23.380;2023-03-19T05:53:40;12.23;;;7.80;;
11807;SDS011;5961;42.640;23.380;2023-03-19T05:56:06;10.50;;;7.07;;
11807;SDS011;5961;42.640;23.380;2023-03-19T05:58:33;11.27;;;7.67;;
11807;SDS011;5961;42.640;23.380;2023-03-19T06:01:00;10.80;;;7.27;;
11807;SDS011;5961;42.640;23.380;2023-03-19T06:03:27;13.30;;;8.10;;
11807;SDS011;5961;42.640;23.380;2023-03-19T06:05:54;12.67;;;7.90;;
11807;SDS011;5961;42.640;23.380;2023-03-19T06:08:21;13.83;;;8.43;;
11807;SDS011;5961;42.640;23.380;2023-03-19T06:10:51;12.27;;;8.33;;
11807;SDS011;5961;42.640;23.380;2023-03-19T06:13:17;12.30;;;8.10;;
11807;SDS011;5961;42.640;23.380;2023-03-19T06:15:46;14.13;;;7.80;;
11807;SDS011;5961;42.640;23.380;2023-03-19T06:18:13;13.43;;;8.60;;
11807;SDS011;5961;42.640;23.380;2023-03-19T06:20:39;16.60;;;8.00;;
11807;SDS011;5961;42.640;23.380;2023-03-19T06:23:06;12.10;;;8.40;;
11807;SDS011;5961;42.640;23.380;2023-03-19T06:25:33;13.37;;;8.80;;
11807;SDS011;5961;42.640;23.380;2023-03-19T06:28:01;15.07;;;8.73;;
11807;SDS011;5961;42.640;23.380;2023-03-19T06:30:28;11.70;;;7.87;;
11807;SDS011;5961;42.640;23.380;2023-03-19T06:32:55;13.87;;;8.53;;
11807;SDS011;5961;42.640;23.380;2023-03-19T06:35:21;14.27;;;9.20;;
11807;SDS011;5961;42.640;23.380;2023-03-19T06:37:48;15.40;;;9.23;;
11807;SDS011;5961;42.640;23.380;2023-03-19T06:40:15;14.20;;;8.90;;
11807;SDS011;5961;42.640;23.380;2023-03-19T06:42:43;11.50;;;8.50;;
11807;SDS011;5961;42.640;23.380;2023-03-19T06:45:12;13.80;;;7.73;;
11807;SDS011;5961;42.640;23.380;2023-03-19T06:47:40;11.73;;;8.27;;
11807;SDS011;5961;42.640;23.380;2023-03-19T06:50:07;12.37;;;7.90;;
11807;SDS011;5961;42.640;23.380;2023-03-19T06:52:35;10.63;;;7.63;;
11807;SDS011;5961;42.640;23.380;2023-03-19T06:55:01;12.70;;;8.33;;
11807;SDS011;5961;42.640;23.380;2023-03-19T06:57:29;18.97;;;8.23;;
11807;SDS011;5961;42.640;23.380;2023-03-19T06:59:56;15.23;;;9.20;;
11807;SDS011;5961;42.640;23.380;2023-03-19T07:02:24;16.50;;;8.83;;
11807;SDS011;5961;42.640;23.380;2023-03-19T07:04:51;12.20;;;8.20;;
11807;SDS011;5961;42.640;23.380;2023-03-19T07:07:17;14.23;;;8.03;;
11807;SDS011;5961;42.640;23.380;2023-03-19T07:09:44;12.73;;;7.80;;
11807;SDS011;5961;42.640;23.380;2023-03-19T07:12:11;14.53;;;8.07;;
11807;SDS011;5961;42.640;23.380;2023-03-19T07:14:38;11.67;;;7.03;;
11807;SDS011;5961;42.640;23.380;2023-03-19T07:17:05;10.93;;;6.90;;
11807;SDS011;5961;42.640;23.380;2023-03-19T07:19:33;9.57;;;6.80;;
11807;SDS011;5961;42.640;23.380;2023-03-19T07:21:59;13.57;;;7.90;;
11807;SDS011;5961;42.640;23.380;2023-03-19T07:24:26;10.33;;;6.73;;
11807;SDS011;5961;42.640;23.380;2023-03-19T07:26:53;11.90;;;7.07;;
11807;SDS011;5961;42.640;23.380;2023-03-19T07:29:20;9.77;;;6.90;;
11807;SDS011;5961;42.640;23.380;2023-03-19T07:31:47;13.63;;;7.50;;
11807;SDS011;5961;42.640;23.380;2023-03-19T07:34:14;11.67;;;6.77;;
11807;SDS011;5961;42.640;23.380;2023-03-19T07:36:42;11.77;;;6.80;;
11807;SDS011;5961;42.640;23.380;2023-03-19T07:39:09;14.00;;;6.57;;
11807;SDS011;5961;42.640;23.380;2023-03-19T07:41:36;11.17;;;6.93;;
11807;SDS011;5961;42.640;23.380;2023-03-19T07:44:02;11.37;;;6.50;;
11807;SDS011;5961;42.640;23.380;2023-03-19T07:46:29;8.47;;;5.97;;
11807;SDS011;5961;42.640;23.380;2023-03-19T07:48:56;10.27;;;6.27;;
11807;SDS011;5961;42.640;23.380;2023-03-19T07:51:22;9.70;;;6.53;;
11807;SDS011;5961;42.640;23.380;2023-03-19T07:53:51;8.23;;;5.57;;
11807;SDS011;5961;42.640;23.380;2023-03-19T07:56:17;8.37;;;6.40;;
11807;SDS011;5961;42.640;23.380;2023-03-19T07:58:44;13.33;;;7.67;;
11807;SDS011;5961;42.640;23.380;2023-03-19T08:01:11;11.33;;;7.53;;
11807;SDS011;5961;42.640;23.380;2023-03-19T08:03:37;10.27;;;6.77;;
11807;SDS011;5961;42.640;23.380;2023-03-19T08:06:04;11.10;;;7.17;;
11807;SDS011;5961;42.640;23.380;2023-03-19T08:08:31;9.43;;;6.60;;
11807;SDS011;5961;42.640;23.380;2023-03-19T08:11:00;9.97;;;6.87;;
11807;SDS011;5961;42.640;23.380;2023-03-19T08:13:27;11.50;;;6.87;;
11807;SDS011;5961;42.640;23.380;2023-03-19T08:15:55;17.93;;;8.33;;
11807;SDS011;5961;42.640;23.380;2023-03-19T08:18:22;12.17;;;7.53;;
11807;SDS011;5961;42.640;23.380;2023-03-19T08:20:49;11.43;;;7.40;;
11807;SDS011;5961;42.640;23.380;2023-03-19T08:23:16;11.03;;;7.83;;
11807;SDS011;5961;42.640;23.380;2023-03-19T08:25:43;14.70;;;7.83;;
11807;SDS011;5961;42.640;23.380;2023-03-19T08:28:11;12.97;;;7.53;;
11807;SDS011;5961;42.640;23.380;2023-03-19T08:30:38;9.37;;;7.17;;
11807;SDS011;5961;42.640;23.380;2023-03-19T08:33:05;13.17;;;7.93;;
11807;SDS011;5961;42.640;23.380;2023-03-19T08:35:32;9.43;;;7.20;;
11807;SDS011;5961;42.640;23.380;2023-03-19T08:37:59;13.70;;;7.70;;
11807;SDS011;5961;42.640;23.380;2023-03-19T08:40:26;13.67;;;9.13;;
11807;SDS011;5961;42.640;23.380;2023-03-19T08:42:53;12.67;;;8.57;;
11807;SDS011;5961;42.640;23.380;2023-03-19T08:45:21;12.63;;;8.17;;
11807;SDS011;5961;42.640;23.380;2023-03-19T08:47:48;11.20;;;7.43;;
11807;SDS011;5961;42.640;23.380;2023-03-19T08:50:15;11.07;;;7.23;;
11807;SDS011;5961;42.640;23.380;2023-03-19T08:52:42;10.07;;;7.43;;
11807;SDS011;5961;42.640;23.380;2023-03-19T08:55:09;8.90;;;6.83;;
11807;SDS011;5961;42.640;23.380;2023-03-19T08:57:38;10.47;;;7.20;;
11807;SDS011;5961;42.640;23.380;2023-03-19T09:00:05;9.37;;;6.80;;
11807;SDS011;5961;42.640;23.380;2023-03-19T09:02:34;14.57;;;6.27;;
11807;SDS011;5961;42.640;23.380;2023-03-19T09:05:01;9.13;;;6.43;;
11807;SDS011;5961;42.640;23.380;2023-03-19T09:07:28;12.37;;;6.57;;
11807;SDS011;5961;42.640;23.380;2023-03-19T09:09:55;10.77;;;7.30;;
11807;SDS011;5961;42.640;23.380;2023-03-19T09:12:21;9.63;;;5.77;;
11807;SDS011;5961;42.640;23.380;2023-03-19T09:14:48;8.03;;;5.37;;
11807;SDS011;5961;42.640;23.380;2023-03-19T09:17:16;7.57;;;5.47;;
11807;SDS011;5961;42.640;23.380;2023-03-19T09:19:44;7.57;;;5.23;;
11807;SDS011;5961;42.640;23.380;2023-03-19T09:22:10;11.47;;;5.83;;
11807;SDS011;5961;42.640;23.380;2023-03-19T09:24:37;10.57;;;6.70;;
11807;SDS011;5961;42.640;23.380;2023-03-19T09:27:04;9.40;;;6.40;;
11807;SDS011;5961;42.640;23.380;2023-03-19T09:29:31;9.73;;;6.17;;
11807;SDS011;5961;42.640;23.380;2023-03-19T09:31:58;8.03;;;6.27;;
11807;SDS011;5961;42.640;23.380;2023-03-19T09:34:25;7.97;;;6.43;;
11807;SDS011;5961;42.640;23.380;2023-03-19T09:36:54;10.33;;;6.50;;
11807;SDS011;5961;42.640;23.380;2023-03-19T09:39:20;7.80;;;6.20;;
11807;SDS011;5961;42.640;23.380;2023-03-19T09:41:59;11.90;;;6.37;;
11807;SDS011;5961;42.640;23.380;2023-03-19T09:44:36;9.83;;;6.90;;
11807;SDS011;5961;42.640;23.380;2023-03-19T09:47:09;11.73;;;6.77;;
11807;SDS011;5961;42.640;23.380;2023-03-19T09:49:46;10.17;;;7.03;;
11807;SDS011;5961;42.640;23.380;2023-03-19T09:52:17;11.97;;;7.37;;
11807;SDS011;5961;42.640;23.380;2023-03-19T09:54:53;10.57;;;7.27;;
11807;SDS011;5961;42.640;23.380;2023-03-19T09:57:22;12.37;;;7.20;;
11807;SDS011;5961;42.640;23.380;2023-03-19T09:59:49;10.20;;;7.27;;
11807;SDS011;5961;42.640;23.380;2023-03-19T10:05:10;10.97;;;7.13;;
11807;SDS011;5961;42.640;23.380;2023-03-19T10:07:52;10.07;;;7.30;;
11807;SDS011;5961;42.640;23.380;2023-03-19T10:10:35;12.67;;;7.43;;
11807;SDS011;5961;42.640;23.380;2023-03-19T10:13:16;10.47;;;7.57;;
11807;SDS011;5961;42.640;23.380;2023-03-19T10:15:55;11.00;;;7.63;;
11807;SDS011;5961;42.640;23.380;2023-03-19T10:18:25;13.43;;;7.50;;
11807;SDS011;5961;42.640;23.380;2023-03-19T10:20:56;10.63;;;7.23;;
11807;SDS011;5961;42.640;23.380;2023-03-19T10:23:31;9.40;;;7.03;;
11807;SDS011;5961;42.640;23.380;2023-03-19T10:26:03;9.93;;;7.17;;
11807;SDS011;5961;42.640;23.380;2023-03-19T10:28:34;9.77;;;6.63;;
11807;SDS011;5961;42.640;23.380;2023-03-19T10:31:06;9.23;;;6.73;;
11807;SDS011;5961;42.640;23.380;2023-03-19T10:33:44;11.17;;;6.83;;
11807;SDS011;5961;42.640;23.380;2023-03-19T10:36:18;9.93;;;6.13;;
11807;SDS011;5961;42.640;23.380;2023-03-19T10:38:48;10.87;;;6.27;;
11807;SDS011;5961;42.640;23.380;2023-03-19T10:41:22;13.03;;;7.17;;
11807;SDS011;5961;42.640;23.380;2023-03-19T10:43:55;8.63;;;6.40;;
11807;SDS011;5961;42.640;23.380;2023-03-19T10:46:25;9.53;;;6.87;;
11807;SDS011;5961;42.640;23.380;2023-03-19T10:48:52;8.97;;;6.90;;
11807;SDS011;5961;42.640;23.380;2023-03-19T10:51:20;9.20;;;6.63;;
11807;SDS011;5961;42.640;23.380;2023-03-19T10:53:52;7.57;;;6.13;;
11807;SDS011;5961;42.640;23.380;2023-03-19T10:56:21;9.67;;;5.90;;
11807;SDS011;5961;42.640;23.380;2023-03-19T10:58:56;9.37;;;6.70;;
11807;SDS011;5961;42.640;23.380;2023-03-19T11:01:30;12.37;;;6.83;;
11807;SDS011;5961;42.640;23.380;2023-03-19T11:03:58;9.77;;;6.53;;
11807;SDS011;5961;42.640;23.380;2023-03-19T11:06:27;13.63;;;6.60;;
11807;SDS011;5961;42.640;23.380;2023-03-19T11:08:59;9.53;;;6.60;;
11807;SDS011;5961;42.640;23.380;2023-03-19T11:11:32;7.47;;;6.17;;
11807;SDS011;5961;42.640;23.380;2023-03-19T11:14:07;8.77;;;6.07;;
11807;SDS011;5961;42.640;23.380;2023-03-19T11:16:46;11.17;;;6.83;;
11807;SDS011;5961;42.640;23.380;2023-03-19T11:19:20;13.03;;;6.70;;
11807;SDS011;5961;42.640;23.380;2023-03-19T11:22:00;8.40;;;6.07;;
11807;SDS011;5961;42.640;23.380;2023-03-19T11:24:35;8.80;;;6.40;;
11807;SDS011;5961;42.640;23.380;2023-03-19T11:27:02;7.43;;;5.93;;
11807;SDS011;5961;42.640;23.380;2023-03-19T11:29:30;8.60;;;6.00;;
11807;SDS011;5961;42.640;23.380;2023-03-19T11:32:00;7.67;;;6.50;;
11807;SDS011;5961;42.640;23.380;2023-03-19T11:34:34;7.73;;;5.70;;
11807;SDS011;5961;42.640;23.380;2023-03-19T11:37:12;9.37;;;5.90;;
11807;SDS011;5961;42.640;23.380;2023-03-19T11:39:47;10.37;;;5.93;;
11807;SDS011;5961;42.640;23.380;2023-03-19T11:42:34;6.90;;;5.83;;
11807;SDS011;5961;42.640;23.380;2023-03-19T11:45:21;8.07;;;5.90;;
11807;SDS011;5961;42.640;23.380;2023-03-19T11:47:58;8.13;;;6.30;;
11807;SDS011;5961;42.640;23.380;2023-03-19T11:50:41;7.60;;;6.00;;
11807;SDS011;5961;42.640;23.380;2023-03-19T11:53:17;7.40;;;5.90;;
11807;SDS011;5961;42.640;23.380;2023-03-19T11:55:51;10.17;;;5.73;;
11807;SDS011;5961;42.640;23.380;2023-03-19T11:58:33;7.63;;;5.67;;
11807;SDS011;5961;42.640;23.380;2023-03-19T12:01:18;9.77;;;5.73;;
11807;SDS011;5961;42.640;23.380;2023-03-19T12:04:02;8.97;;;5.77;;
11807;SDS011;5961;42.640;23.380;2023-03-19T12:06:44;10.93;;;6.20;;
11807;SDS011;5961;42.640;23.380;2023-03-19T12:09:18;9.03;;;6.63;;
11807;SDS011;5961;42.640;23.380;2023-03-19T12:11:56;9.03;;;6.73;;
11807;SDS011;5961;42.640;23.380;2023-03-19T12:14:31;8.10;;;6.20;;
11807;SDS011;5961;42.640;23.380;2023-03-19T12:17:15;11.47;;;6.20;;
11807;SDS011;5961;42.640;23.380;2023-03-19T12:19:52;11.97;;;6.03;;
11807;SDS011;5961;42.640;23.380;2023-03-19T12:22:31;8.97;;;6.07;;
11807;SDS011;5961;42.640;23.380;2023-03-19T12:25:20;8.57;;;5.50;;
11807;SDS011;5961;42.640;23.380;2023-03-19T12:27:57;9.67;;;6.50;;
11807;SDS011;5961;42.640;23.380;2023-03-19T12:30:31;7.13;;;5.50;;
11807;SDS011;5961;42.640;23.380;2023-03-19T12:33:07;7.73;;;5.30;;
11807;SDS011;5961;42.640;23.380;2023-03-19T12:35:42;7.97;;;6.20;;
11807;SDS011;5961;42.640;23.380;2023-03-19T12:38:16;11.67;;;6.30;;
11807;SDS011;5961;42.640;23.380;2023-03-19T12:40:50;8.47;;;5.97;;
11807;SDS011;5961;42.640;23.380;2023-03-19T12:43:24;6.60;;;5.60;;
11807;SDS011;5961;42.640;23.380;2023-03-19T12:45:56;12.43;;;5.57;;
11807;SDS011;5961;42.640;23.380;2023-03-19T12:48:28;9.10;;;5.87;;
11807;SDS011;5961;42.640;23.380;2023-03-19T12:51:01;13.63;;;7.20;;
11807;SDS011;5961;42.640;23.380;2023-03-19T12:53:34;7.37;;;5.60;;
11807;SDS011;5961;42.640;23.380;2023-03-19T12:56:11;10.40;;;5.43;;
11807;SDS011;5961;42.640;23.380;2023-03-19T12:58:47;8.20;;;5.63;;
11807;SDS011;5961;42.640;23.380;2023-03-19T13:01:22;12.57;;;7.17;;
11807;SDS011;5961;42.640;23.380;2023-03-19T13:03:53;10.30;;;6.00;;
11807;SDS011;5961;42.640;23.380;2023-03-19T13:06:25;12.47;;;6.87;;
11807;SDS011;5961;42.640;23.380;2023-03-19T13:08:58;6.33;;;5.37;;
11807;SDS011;5961;42.640;23.380;2023-03-19T13:11:32;9.47;;;5.40;;
11807;SDS011;5961;42.640;23.380;2023-03-19T13:14:07;5.47;;;4.30;;
11807;SDS011;5961;42.640;23.380;2023-03-19T13:16:44;9.73;;;5.43;;
11807;SDS011;5961;42.640;23.380;2023-03-19T13:19:18;9.23;;;6.07;;
11807;SDS011;5961;42.640;23.380;2023-03-19T13:21:52;7.77;;;5.30;;
11807;SDS011;5961;42.640;23.380;2023-03-19T13:24:23;8.80;;;5.33;;
11807;SDS011;5961;42.640;23.380;2023-03-19T13:26:52;8.67;;;5.47;;
11807;SDS011;5961;42.640;23.380;2023-03-19T13:29:23;11.80;;;4.73;;
11807;SDS011;5961;42.640;23.380;2023-03-19T13:31:51;7.57;;;4.80;;
11807;SDS011;5961;42.640;23.380;2023-03-19T13:34:25;5.33;;;4.40;;
11807;SDS011;5961;42.640;23.380;2023-03-19T13:36:57;11.63;;;5.03;;
11807;SDS011;5961;42.640;23.380;2023-03-19T13:39:27;7.40;;;5.00;;
11807;SDS011;5961;42.640;23.380;2023-03-19T13:42:05;6.60;;;4.63;;
11807;SDS011;5961;42.640;23.380;2023-03-19T13:44:40;5.33;;;4.60;;
11807;SDS011;5961;42.640;23.380;2023-03-19T13:50:10;6.77;;;4.20;;
11807;SDS011;5961;42.640;23.380;2023-03-19T13:52:49;6.60;;;4.80;;
11807;SDS011;5961;42.640;23.380;2023-03-19T13:55:27;8.17;;;5.33;;
11807;SDS011;5961;42.640;23.380;2023-03-19T13:57:57;9.10;;;5.53;;
11807;SDS011;5961;42.640;23.380;2023-03-19T14:00:59;7.37;;;4.90;;
11807;SDS011;5961;42.640;23.380;2023-03-19T14:03:26;6.87;;;5.10;;
11807;SDS011;5961;42.640;23.380;2023-03-19T14:05:55;7.93;;;4.70;;
11807;SDS011;5961;42.640;23.380;2023-03-19T14:08:24;8.40;;;4.83;;
11807;SDS011;5961;42.640;23.380;2023-03-19T14:10:54;6.33;;;4.30;;
11807;SDS011;5961;42.640;23.380;2023-03-19T14:13:30;7.77;;;4.67;;
11807;SDS011;5961;42.640;23.380;2023-03-19T14:16:04;6.60;;;4.50;;
11807;SDS011;5961;42.640;23.380;2023-03-19T14:18:34;7.67;;;4.67;;
11807;SDS011;5961;42.640;23.380;2023-03-19T14:21:05;6.40;;;4.10;;
11807;SDS011;5961;42.640;23.380;2023-03-19T14:23:36;4.73;;;3.93;;
11807;SDS011;5961;42.640;23.380;2023-03-19T14:26:05;8.90;;;4.50;;
11807;SDS011;5961;42.640;23.380;2023-03-19T14:31:26;5.93;;;3.90;;
11807;SDS011;5961;42.640;23.380;2023-03-19T14:33:58;5.60;;;3.97;;
11807;SDS011;5961;42.640;23.380;2023-03-19T14:36:29;5.80;;;3.77;;
11807;SDS011;5961;42.640;23.380;2023-03-19T14:38:57;5.50;;;3.93;;
11807;SDS011;5961;42.640;23.380;2023-03-19T14:41:26;5.17;;;3.57;;
11807;SDS011;5961;42.640;23.380;2023-03-19T14:44:05;4.43;;;3.40;;
11807;SDS011;5961;42.640;23.380;2023-03-19T14:47:03;3.97;;;3.47;;
11807;SDS011;5961;42.640;23.380;2023-03-19T14:49:49;4.40;;;3.50;;
11807;SDS011;5961;42.640;23.380;2023-03-19T14:52:24;5.20;;;3.30;;
11807;SDS011;5961;42.640;23.380;2023-03-19T14:54:53;4.27;;;3.40;;
11807;SDS011;5961;42.640;23.380;2023-03-19T14:57:25;4.13;;;3.30;;
11807;SDS011;5961;42.640;23.380;2023-03-19T14:59:53;4.67;;;3.63;;
11807;SDS011;5961;42.640;23.380;2023-03-19T15:02:24;5.60;;;3.60;;
11807;SDS011;5961;42.640;23.380;2023-03-19T15:04:58;5.30;;;3.40;;